createdAt,value
2023-05-11T00:01:09.204Z,2.40
2023-05-11T00:03:35.993Z,2.78
2023-05-11T00:06:02.580Z,2.20
2023-05-11T00:08:29.044Z,2.80
2023-05-11T00:10:55.584Z,2.20
2023-05-11T00:13:22.014Z,3.58
2023-05-11T00:15:48.470Z,2.53
2023-05-11T00:18:14.972Z,2.15
2023-05-11T00:20:41.398Z,2.50
2023-05-11T00:23:07.852Z,2.13
2023-05-11T00:25:34.314Z,2.72
2023-05-11T00:28:00.696Z,2.38
2023-05-11T00:30:27.072Z,2.50
2023-05-11T00:32:53.512Z,2.22
2023-05-11T00:35:23.070Z,2.65
2023-05-11T00:37:49.499Z,2.33
2023-05-11T00:40:16.201Z,2.38
2023-05-11T00:42:42.752Z,2.28
2023-05-11T00:45:09.351Z,2.40
2023-05-11T00:47:36.259Z,2.42
2023-05-11T00:50:02.704Z,2.67
2023-05-11T00:52:29.775Z,2.17
2023-05-11T00:54:56.188Z,2.42
2023-05-11T00:57:22.646Z,2.83
2023-05-11T00:59:49.308Z,2.20
2023-05-11T01:02:15.853Z,2.25
2023-05-11T01:04:42.588Z,2.42
2023-05-11T01:07:24.254Z,2.38
2023-05-11T01:09:56.688Z,2.80
2023-05-11T01:12:30.244Z,3.30
2023-05-11T01:15:13.725Z,2.40
2023-05-11T01:17:49.212Z,2.30
2023-05-11T01:20:18.098Z,3.20
2023-05-11T01:22:50.552Z,3.13
2023-05-11T01:25:22.620Z,2.70
2023-05-11T01:27:50.310Z,2.15
2023-05-11T01:30:32.197Z,2.75
2023-05-11T01:32:59.665Z,3.17
2023-05-11T01:35:26.549Z,2.28
2023-05-11T01:37:54.576Z,2.53
2023-05-11T01:40:22.626Z,2.85
2023-05-11T01:42:50.419Z,2.63
2023-05-11T01:45:17.129Z,2.78
2023-05-11T01:47:44.981Z,2.90
2023-05-11T01:50:12.248Z,2.72
2023-05-11T01:52:39.822Z,2.30
2023-05-11T01:55:07.221Z,2.33
2023-05-11T01:57:34.065Z,2.70
2023-05-11T02:00:01.428Z,2.30
2023-05-11T02:02:29.134Z,2.72
2023-05-11T02:04:55.985Z,2.80
2023-05-11T02:07:23.364Z,2.78
2023-05-11T02:09:50.263Z,3.03
2023-05-11T02:12:18.280Z,2.50
2023-05-11T02:14:45.607Z,2.45
2023-05-11T02:17:13.178Z,2.95
2023-05-11T02:19:42.021Z,2.95
2023-05-11T02:22:09.243Z,2.63
2023-05-11T02:24:35.751Z,3.10
2023-05-11T02:27:02.486Z,2.75
2023-05-11T02:29:29.075Z,2.42
2023-05-11T02:31:57.041Z,3.03
2023-05-11T02:34:28.791Z,2.80
2023-05-11T02:36:59.089Z,2.90
2023-05-11T02:39:28.776Z,2.85
2023-05-11T02:41:56.625Z,3.25
2023-05-11T02:44:24.464Z,3.17
2023-05-11T02:46:52.542Z,2.70
2023-05-11T02:49:21.011Z,3.05
2023-05-11T02:51:48.769Z,2.80
2023-05-11T02:54:16.072Z,2.55
2023-05-11T02:56:42.563Z,2.88
2023-05-11T02:59:09.080Z,2.78
2023-05-11T03:01:35.668Z,2.65
2023-05-11T03:04:05.688Z,3.03
2023-05-11T03:06:33.274Z,3.17
2023-05-11T03:09:01.306Z,3.78
2023-05-11T03:11:27.978Z,2.92
2023-05-11T03:13:54.558Z,2.88
2023-05-11T03:16:21.598Z,2.92
2023-05-11T03:18:49.107Z,2.53
2023-05-11T03:21:16.250Z,2.95
2023-05-11T03:23:43.088Z,3.20
2023-05-11T03:26:10.393Z,2.65
2023-05-11T03:28:36.902Z,2.80
2023-05-11T03:31:04.359Z,2.72
2023-05-11T03:33:31.241Z,2.97
2023-05-11T03:36:00.893Z,3.15
2023-05-11T03:38:28.138Z,3.17
2023-05-11T03:40:54.910Z,3.00
2023-05-11T03:43:21.962Z,3.50
2023-05-11T03:45:50.970Z,2.80
2023-05-11T03:48:18.258Z,3.40
2023-05-11T03:50:44.808Z,2.90
2023-05-11T03:53:11.786Z,3.22
2023-05-11T03:55:38.287Z,3.10
2023-05-11T03:58:08.770Z,2.85
2023-05-11T04:00:41.624Z,3.20
2023-05-11T04:03:11.353Z,3.75
2023-05-11T04:05:37.810Z,3.13
2023-05-11T04:08:04.754Z,3.03
2023-05-11T04:10:31.195Z,3.47
2023-05-11T04:12:57.739Z,2.70
2023-05-11T04:15:24.303Z,2.83
2023-05-11T04:17:50.837Z,3.28
2023-05-11T04:20:17.478Z,2.70
2023-05-11T04:22:44.165Z,2.83
2023-05-11T04:25:10.819Z,3.47
2023-05-11T04:27:37.307Z,2.80
2023-05-11T04:30:03.840Z,3.10
2023-05-11T04:32:30.398Z,3.22
2023-05-11T04:34:56.916Z,2.90
2023-05-11T04:37:23.368Z,3.80
2023-05-11T04:39:49.909Z,3.22
2023-05-11T04:42:16.331Z,3.08
2023-05-11T04:44:44.845Z,3.40
2023-05-11T04:47:11.312Z,3.83
2023-05-11T04:49:37.747Z,2.53
2023-05-11T04:52:04.265Z,2.67
2023-05-11T04:54:31.157Z,2.97
2023-05-11T04:56:57.582Z,3.35
2023-05-11T04:59:24.185Z,2.90
2023-05-11T05:01:50.667Z,3.75
2023-05-11T05:04:17.178Z,2.95
2023-05-11T05:06:43.625Z,3.20
2023-05-11T05:09:11.129Z,2.70
2023-05-11T05:11:37.572Z,3.58
2023-05-11T05:14:04.038Z,2.75
2023-05-11T05:16:32.243Z,2.70
2023-05-11T05:21:40.727Z,3.85
2023-05-11T05:24:11.051Z,3.28
2023-05-11T05:26:37.697Z,2.95
2023-05-11T05:29:05.065Z,2.90
2023-05-11T05:31:31.556Z,3.35
2023-05-11T05:33:58.136Z,2.78
2023-05-11T05:36:24.726Z,3.00
2023-05-11T05:38:51.118Z,3.10
2023-05-11T05:41:17.645Z,3.42
2023-05-11T05:43:44.128Z,2.70
2023-05-11T05:46:10.767Z,3.08
2023-05-11T05:48:37.256Z,3.10
2023-05-11T05:51:03.731Z,3.10
2023-05-11T05:53:33.174Z,3.03
2023-05-11T05:55:59.625Z,2.85
2023-05-11T05:58:26.009Z,3.20
2023-05-11T06:00:52.689Z,2.92
2023-05-11T06:03:19.279Z,3.03
2023-05-11T06:05:45.732Z,2.65
2023-05-11T06:08:12.142Z,2.85
2023-05-11T06:10:38.760Z,2.85
2023-05-11T06:13:05.459Z,2.78
2023-05-11T06:15:31.870Z,2.80
2023-05-11T06:17:58.295Z,3.33
2023-05-11T06:20:24.827Z,3.03
2023-05-11T06:22:51.219Z,2.83
2023-05-11T06:25:17.787Z,3.20
2023-05-11T06:27:44.307Z,3.25
2023-05-11T06:30:10.964Z,2.90
2023-05-11T06:32:37.384Z,3.28
2023-05-11T06:35:06.807Z,3.33
2023-05-11T06:37:33.387Z,3.42
2023-05-11T06:39:59.878Z,3.00
2023-05-11T06:42:26.311Z,2.90
2023-05-11T06:44:52.831Z,2.88
2023-05-11T06:47:19.520Z,2.83
2023-05-11T06:49:45.892Z,2.75
2023-05-11T06:52:12.448Z,3.28
2023-05-11T06:54:38.932Z,3.10
2023-05-11T06:57:05.392Z,3.13
2023-05-11T06:59:32.557Z,2.67
2023-05-11T07:01:59.170Z,3.17
2023-05-11T07:04:25.716Z,2.78
2023-05-11T07:06:52.179Z,2.78
2023-05-11T07:09:18.578Z,2.83
2023-05-11T07:11:45.120Z,3.50
2023-05-11T07:14:12.146Z,3.00
2023-05-11T07:16:39.757Z,2.85
2023-05-11T07:19:06.639Z,2.75
2023-05-11T07:21:34.086Z,2.40
2023-05-11T07:24:00.738Z,2.92
2023-05-11T07:26:27.144Z,3.33
2023-05-11T07:28:53.581Z,2.80
2023-05-11T07:31:20.026Z,2.67
2023-05-11T07:33:46.427Z,2.95
2023-05-11T07:36:12.826Z,2.72
2023-05-11T07:38:39.580Z,2.50
2023-05-11T07:41:07.379Z,2.90
2023-05-11T07:43:34.892Z,2.40
2023-05-11T07:46:01.443Z,2.90
2023-05-11T07:48:27.911Z,2.95
2023-05-11T07:50:54.335Z,2.67
2023-05-11T07:53:20.826Z,2.92
2023-05-11T07:55:47.388Z,2.97
2023-05-11T07:58:13.820Z,3.45
2023-05-11T08:00:40.290Z,2.70
2023-05-11T08:03:06.800Z,3.42
2023-05-11T08:05:37.320Z,2.42
2023-05-11T08:08:04.781Z,2.80
2023-05-11T08:10:31.793Z,2.80
2023-05-11T08:12:58.495Z,2.58
2023-05-11T08:15:28.157Z,3.42
2023-05-11T08:17:54.633Z,2.70
2023-05-11T08:20:21.045Z,2.67
2023-05-11T08:22:47.583Z,2.60
2023-05-11T08:25:14.062Z,2.63
2023-05-11T08:27:40.637Z,2.97
2023-05-11T08:30:11.477Z,2.67
2023-05-11T08:32:57.264Z,2.63
2023-05-11T08:35:25.003Z,3.15
2023-05-11T08:37:51.530Z,2.50
2023-05-11T08:40:19.144Z,3.10
2023-05-11T08:42:46.927Z,2.47
2023-05-11T08:45:13.492Z,2.42
2023-05-11T08:47:39.967Z,2.60
2023-05-11T08:50:06.689Z,2.53
2023-05-11T08:52:33.170Z,2.35
2023-05-11T08:54:59.559Z,2.97
2023-05-11T08:57:28.101Z,2.58
2023-05-11T08:59:54.565Z,2.53
2023-05-11T09:02:21.237Z,2.40
2023-05-11T09:04:49.191Z,2.97
2023-05-11T09:07:17.447Z,2.33
2023-05-11T09:09:44.198Z,2.25
2023-05-11T09:12:10.905Z,2.80
2023-05-11T09:14:37.666Z,2.55
2023-05-11T09:17:04.454Z,2.40
2023-05-11T09:19:31.447Z,2.40
2023-05-11T09:21:59.081Z,2.33
2023-05-11T09:24:25.848Z,2.47
2023-05-11T09:27:08.907Z,2.70
2023-05-11T09:29:35.509Z,2.53
2023-05-11T09:32:02.015Z,2.50
2023-05-11T09:34:28.595Z,3.20
2023-05-11T09:36:56.150Z,2.97
2023-05-11T09:39:42.101Z,2.55
2023-05-11T09:42:18.017Z,3.08
2023-05-11T09:44:45.188Z,2.60
2023-05-11T09:47:15.496Z,2.78
2023-05-11T09:49:43.446Z,2.50
2023-05-11T09:52:13.887Z,2.58
2023-05-11T09:54:44.249Z,2.55
2023-05-11T09:57:30.157Z,2.70
2023-05-11T09:59:57.285Z,2.67
2023-05-11T10:02:24.705Z,2.97
2023-05-11T10:04:52.141Z,2.50
2023-05-11T10:07:24.745Z,2.80
2023-05-11T10:09:53.219Z,2.30
2023-05-11T10:12:21.321Z,2.00
2023-05-11T10:14:48.757Z,2.58
2023-05-11T10:17:16.045Z,2.40
2023-05-11T10:19:42.836Z,2.33
2023-05-11T10:22:09.956Z,2.65
2023-05-11T10:24:36.796Z,2.30
2023-05-11T10:27:03.829Z,2.42
2023-05-11T10:29:31.280Z,3.00
2023-05-11T10:31:58.320Z,2.40
2023-05-11T10:34:27.933Z,2.47
2023-05-11T10:36:55.069Z,2.13
2023-05-11T10:39:21.598Z,2.72
2023-05-11T10:42:06.749Z,2.20
2023-05-11T10:44:33.124Z,2.60
2023-05-11T10:47:12.152Z,2.47
2023-05-11T10:49:42.044Z,2.30
2023-05-11T10:52:08.496Z,2.37
2023-05-11T10:54:43.131Z,2.38
2023-05-11T10:57:15.453Z,2.20
2023-05-11T10:59:42.028Z,2.45
2023-05-11T11:02:08.492Z,2.30
2023-05-11T11:05:05.668Z,2.40
2023-05-11T11:07:32.561Z,2.80
2023-05-11T11:10:00.526Z,2.75
2023-05-11T11:12:28.018Z,2.50
2023-05-11T11:14:55.513Z,2.30
2023-05-11T11:17:25.024Z,2.38
2023-05-11T11:19:51.591Z,2.50
2023-05-11T11:22:36.397Z,2.58
2023-05-11T11:25:06.557Z,2.25
2023-05-11T11:27:41.979Z,2.10
2023-05-11T11:30:20.615Z,2.40
2023-05-11T11:32:48.321Z,2.20
2023-05-11T11:35:33.835Z,2.40
2023-05-11T11:38:02.129Z,2.80
2023-05-11T11:40:47.118Z,2.78
2023-05-11T11:43:19.177Z,2.10
2023-05-11T11:45:59.616Z,2.30
2023-05-11T11:51:01.437Z,2.63
2023-05-11T11:53:44.492Z,1.95
2023-05-11T11:56:13.940Z,2.50
2023-05-11T11:58:40.336Z,2.17
2023-05-11T12:01:12.044Z,2.00
2023-05-11T12:03:39.570Z,2.22
2023-05-11T12:06:09.031Z,2.50
2023-05-11T12:08:36.085Z,2.70
2023-05-11T12:11:03.246Z,2.40
2023-05-11T12:13:30.338Z,2.65
2023-05-11T12:16:13.060Z,2.30
2023-05-11T12:18:39.955Z,2.55
2023-05-11T12:21:06.505Z,2.10
2023-05-11T12:23:32.962Z,2.20
2023-05-11T12:26:02.941Z,2.35
2023-05-11T12:28:29.527Z,1.85
2023-05-11T12:30:58.264Z,2.45
2023-05-11T12:35:57.205Z,2.30
2023-05-11T12:38:23.658Z,2.00
2023-05-11T12:40:51.536Z,2.30
2023-05-11T12:43:18.704Z,2.10
2023-05-11T12:45:45.746Z,2.15
2023-05-11T12:48:12.762Z,2.10
2023-05-11T12:50:41.953Z,2.50
2023-05-11T12:53:15.731Z,2.40
2023-05-11T12:55:42.652Z,2.60
2023-05-11T12:58:12.137Z,1.70
2023-05-11T13:00:50.244Z,2.30
2023-05-11T13:03:21.625Z,2.40
2023-05-11T13:05:48.428Z,2.38
2023-05-11T13:08:16.587Z,2.10
2023-05-11T13:10:43.119Z,2.25
2023-05-11T13:13:09.616Z,2.33
2023-05-11T13:15:49.683Z,2.10
2023-05-11T13:18:16.848Z,2.42
2023-05-11T13:20:44.904Z,2.30
2023-05-11T13:23:13.273Z,2.33
2023-05-11T13:25:45.939Z,2.20
2023-05-11T13:28:14.196Z,2.35
2023-05-11T13:30:43.527Z,2.30
2023-05-11T13:33:10.140Z,2.30
2023-05-11T13:35:39.745Z,2.72
2023-05-11T13:38:06.171Z,2.40
2023-05-11T13:40:32.649Z,2.30
2023-05-11T13:43:00.342Z,2.45
2023-05-11T13:45:30.221Z,2.60
2023-05-11T13:47:56.812Z,2.42
2023-05-11T13:50:23.938Z,2.30
2023-05-11T13:52:50.880Z,2.67
2023-05-11T13:55:18.078Z,2.63
2023-05-11T13:57:44.863Z,2.50
2023-05-11T14:00:11.835Z,2.50
2023-05-11T14:02:38.726Z,2.70
2023-05-11T14:05:05.663Z,2.45
2023-05-11T14:07:45.710Z,2.40
2023-05-11T14:10:14.180Z,2.15
2023-05-11T14:12:41.064Z,3.05
2023-05-11T14:15:07.798Z,2.67
2023-05-11T14:17:34.254Z,2.63
2023-05-11T14:20:00.769Z,2.50
2023-05-11T14:22:28.569Z,2.38
2023-05-11T14:24:54.969Z,2.80
2023-05-11T14:27:22.216Z,2.13
2023-05-11T14:29:51.157Z,2.10
2023-05-11T14:32:20.762Z,2.63
2023-05-11T14:34:47.861Z,2.08
2023-05-11T14:37:14.371Z,2.80
2023-05-11T14:39:41.387Z,2.55
2023-05-11T14:42:08.101Z,2.33
2023-05-11T14:44:34.609Z,2.97
2023-05-11T14:47:01.070Z,2.67
2023-05-11T14:49:29.921Z,2.63
2023-05-11T14:51:57.704Z,2.92
2023-05-11T14:54:24.167Z,3.42
2023-05-11T14:56:55.464Z,2.30
2023-05-11T14:59:24.426Z,2.78
2023-05-11T15:01:51.073Z,2.70
2023-05-11T15:04:18.911Z,2.65
2023-05-11T15:06:45.395Z,2.63
2023-05-11T15:09:11.779Z,3.20
2023-05-11T15:11:38.270Z,2.65
2023-05-11T15:14:05.212Z,2.42
2023-05-11T15:16:31.989Z,2.78
2023-05-11T15:18:59.306Z,3.10
2023-05-11T15:21:25.757Z,2.50
2023-05-11T15:23:53.792Z,2.58
2023-05-11T15:26:21.467Z,2.55
2023-05-11T15:28:47.914Z,3.28
2023-05-11T15:31:14.338Z,2.72
2023-05-11T15:33:40.871Z,3.22
2023-05-11T15:36:15.148Z,2.65
2023-05-11T15:38:42.457Z,2.63
2023-05-11T15:41:08.991Z,2.40
2023-05-11T15:43:35.476Z,2.58
2023-05-11T15:46:03.683Z,3.03
2023-05-11T15:48:30.378Z,3.20
2023-05-11T15:50:57.729Z,2.47
2023-05-11T15:53:24.406Z,2.50
2023-05-11T15:55:53.527Z,3.70
2023-05-11T15:58:20.164Z,3.38
2023-05-11T16:00:46.705Z,2.90
2023-05-11T16:03:13.316Z,3.55
2023-05-11T16:05:40.098Z,2.90
2023-05-11T16:08:06.737Z,3.53
2023-05-11T16:10:33.452Z,2.67
2023-05-11T16:12:59.942Z,2.47
2023-05-11T16:15:27.808Z,2.75
2023-05-11T16:17:54.389Z,2.92
2023-05-11T16:20:21.003Z,2.95
2023-05-11T16:22:48.052Z,2.85
2023-05-11T16:25:14.512Z,2.78
2023-05-11T16:27:40.937Z,2.90
2023-05-11T16:30:18.297Z,2.90
2023-05-11T16:32:50.285Z,2.72
2023-05-11T16:35:16.782Z,3.17
2023-05-11T16:37:43.204Z,3.10
2023-05-11T16:40:09.701Z,3.00
2023-05-11T16:42:36.120Z,2.83
2023-05-11T16:45:02.498Z,3.00
2023-05-11T16:47:28.998Z,3.65
2023-05-11T16:49:55.603Z,3.45
2023-05-11T16:52:22.021Z,3.67
2023-05-11T16:54:48.448Z,3.20
2023-05-11T16:57:14.952Z,3.30
2023-05-11T16:59:41.388Z,3.00
2023-05-11T17:02:08.232Z,2.85
2023-05-11T17:04:34.695Z,3.17
2023-05-11T17:07:03.230Z,3.10
2023-05-11T17:09:29.822Z,2.97
2023-05-11T17:11:56.418Z,3.28
2023-05-11T17:14:22.890Z,2.95
2023-05-11T17:16:49.440Z,3.35
2023-05-11T17:19:16.594Z,3.30
2023-05-11T17:21:43.159Z,2.85
2023-05-11T17:24:09.690Z,2.95
2023-05-11T17:26:47.140Z,3.65
2023-05-11T17:29:15.111Z,3.20
2023-05-11T17:31:41.997Z,3.03
2023-05-11T17:34:09.220Z,3.08
2023-05-11T17:36:36.167Z,2.67
2023-05-11T17:39:02.757Z,3.38
2023-05-11T17:41:29.214Z,3.00
2023-05-11T17:43:55.683Z,3.33
2023-05-11T17:46:22.336Z,3.15
2023-05-11T17:48:49.156Z,2.97
2023-05-11T17:51:15.768Z,3.10
2023-05-11T17:53:42.546Z,4.35
2023-05-11T17:56:11.712Z,3.13
2023-05-11T17:58:46.144Z,3.50
2023-05-11T18:04:23.537Z,3.10
2023-05-11T18:06:50.325Z,3.58
2023-05-11T18:09:18.811Z,3.13
2023-05-11T18:11:45.436Z,3.40
2023-05-11T18:14:12.096Z,4.05
2023-05-11T18:16:38.681Z,3.30
2023-05-11T18:19:05.422Z,3.80
2023-05-11T18:21:34.450Z,3.05
2023-05-11T18:24:00.931Z,3.13
2023-05-11T18:26:27.344Z,3.40
2023-05-11T18:28:56.657Z,3.55
2023-05-11T18:31:23.119Z,3.33
2023-05-11T18:33:50.085Z,2.95
2023-05-11T18:36:16.598Z,3.15
2023-05-11T18:38:45.895Z,3.50
2023-05-11T18:41:12.520Z,3.03
2023-05-11T18:43:38.950Z,3.13
2023-05-11T18:46:08.650Z,2.75
2023-05-11T18:48:35.259Z,3.08
2023-05-11T18:51:01.717Z,3.10
2023-05-11T18:53:28.260Z,3.08
2023-05-11T18:55:58.846Z,3.33
2023-05-11T18:58:25.355Z,3.33
2023-05-11T19:00:52.077Z,3.15
2023-05-11T19:03:19.385Z,3.45
2023-05-11T19:05:46.234Z,3.20
2023-05-11T19:08:12.722Z,3.95
2023-05-11T19:10:40.440Z,3.03
2023-05-11T19:13:09.670Z,3.13
2023-05-11T19:15:36.248Z,2.97
2023-05-11T19:18:02.855Z,3.17
2023-05-11T19:20:29.470Z,3.30
2023-05-11T19:22:55.977Z,4.63
2023-05-11T19:25:22.689Z,3.25
2023-05-11T19:27:49.112Z,3.13
2023-05-11T19:30:15.572Z,3.25
2023-05-11T19:32:43.189Z,3.35
2023-05-11T19:35:12.673Z,3.83
2023-05-11T19:37:39.077Z,3.17
2023-05-11T19:40:38.060Z,3.55
2023-05-11T19:42:52.507Z,3.53
2023-05-11T19:45:19.067Z,4.00
2023-05-11T19:47:45.645Z,3.90
2023-05-11T19:50:14.501Z,3.40
2023-05-11T19:52:40.895Z,3.45
2023-05-11T19:55:07.530Z,3.67
2023-05-11T19:57:37.730Z,3.30
2023-05-11T20:00:05.314Z,3.90
2023-05-11T20:02:32.345Z,3.83
2023-05-11T20:04:59.156Z,3.63
2023-05-11T20:07:26.263Z,3.58
2023-05-11T20:09:52.913Z,3.60
2023-05-11T20:12:19.388Z,3.65
2023-05-11T20:14:49.017Z,3.80
2023-05-11T20:17:15.533Z,4.75
2023-05-11T20:19:41.991Z,4.28
2023-05-11T20:22:08.477Z,3.72
2023-05-11T20:24:34.868Z,3.58
2023-05-11T20:27:05.654Z,3.92
2023-05-11T20:29:32.065Z,3.30
2023-05-11T20:32:01.986Z,3.78
2023-05-11T20:34:28.613Z,3.30
2023-05-11T20:36:55.172Z,3.25
2023-05-11T20:39:22.010Z,3.45
2023-05-11T20:41:50.050Z,3.50
2023-05-11T20:44:17.201Z,3.40
2023-05-11T20:46:43.741Z,3.80
2023-05-11T20:49:22.284Z,3.70
2023-05-11T20:51:54.211Z,3.60
2023-05-11T20:54:22.509Z,4.22
2023-05-11T20:56:49.274Z,3.90
2023-05-11T21:01:45.159Z,3.28
2023-05-11T21:04:11.695Z,3.60
2023-05-11T21:06:38.181Z,3.30
2023-05-11T21:09:04.563Z,4.38
2023-05-11T21:11:30.966Z,4.00
2023-05-11T21:13:57.478Z,4.40
2023-05-11T21:16:27.112Z,3.95
2023-05-11T21:18:53.774Z,4.57
2023-05-11T21:21:20.609Z,4.20
2023-05-11T21:23:47.030Z,3.83
2023-05-11T21:26:13.537Z,4.15
2023-05-11T21:28:40.597Z,4.60
2023-05-11T21:31:07.098Z,3.97
2023-05-11T21:33:35.980Z,3.60
2023-05-11T21:36:04.304Z,4.03
2023-05-11T21:38:32.471Z,5.18
2023-05-11T21:40:58.841Z,4.15
2023-05-11T21:43:25.390Z,4.55
2023-05-11T21:45:51.827Z,3.60
2023-05-11T21:48:18.379Z,3.78
2023-05-11T21:50:47.060Z,4.00
2023-05-11T21:53:13.454Z,3.78
2023-05-11T21:55:39.867Z,4.68
2023-05-11T21:58:06.383Z,4.20
2023-05-11T22:00:34.189Z,4.63
2023-05-11T22:03:01.553Z,4.20
2023-05-11T22:05:28.192Z,4.07
2023-05-11T22:08:03.259Z,4.15
2023-05-11T22:10:37.184Z,3.85
2023-05-11T22:13:03.570Z,4.47
2023-05-11T22:15:30.081Z,5.05
2023-05-11T22:17:56.607Z,4.80
2023-05-11T22:20:23.007Z,4.68
2023-05-11T22:22:49.438Z,4.57
2023-05-11T22:25:15.859Z,5.20
2023-05-11T22:27:43.001Z,4.38
2023-05-11T22:30:09.978Z,4.43
2023-05-11T22:32:36.436Z,4.90
2023-05-11T22:35:03.018Z,4.80
2023-05-11T22:37:30.772Z,5.15
2023-05-11T22:39:57.215Z,4.80
2023-05-11T22:42:23.717Z,5.03
2023-05-11T22:44:50.430Z,4.60
2023-05-11T22:47:16.996Z,5.90
2023-05-11T22:49:43.669Z,6.05
2023-05-11T22:52:10.225Z,7.18
2023-05-11T22:54:36.810Z,6.28
2023-05-11T22:57:03.714Z,6.05
2023-05-11T22:59:34.250Z,6.07
2023-05-11T23:02:04.547Z,5.88
2023-05-11T23:04:32.020Z,5.40
2023-05-11T23:06:59.675Z,5.18
2023-05-11T23:09:26.551Z,4.63
2023-05-11T23:11:53.331Z,5.10
2023-05-11T23:14:19.727Z,4.97
2023-05-11T23:16:46.113Z,4.70
2023-05-11T23:19:12.564Z,4.32
2023-05-11T23:21:39.008Z,4.80
2023-05-11T23:24:05.567Z,4.55
2023-05-11T23:26:31.999Z,4.00
2023-05-11T23:28:58.458Z,5.03
2023-05-11T23:31:25.658Z,4.15
2023-05-11T23:33:52.065Z,4.38
2023-05-11T23:36:18.441Z,4.45
2023-05-11T23:38:44.990Z,4.35
2023-05-11T23:41:11.528Z,4.65
2023-05-11T23:43:38.248Z,4.82
2023-05-11T23:46:04.959Z,4.68
2023-05-11T23:48:31.356Z,4.18
2023-05-11T23:50:57.785Z,4.35
2023-05-11T23:53:24.238Z,4.13
2023-05-11T23:55:50.812Z,4.82
2023-05-11T23:58:20.288Z,4.47
